Terminal Aerodrome Forecast
Issued by NWS

Home | Current Version | Previous Version | Text Only | Print | Product List | Glossary On
Versions: 1 2 3 4 5 6 7 8 9 10 11 12 13 14 15 16 17
000
FTUS43 KDTX 010308 AAA
TAFDET
TAF AMD
KDET 010308Z 0103/0124 36008KT 5SM -SHRA BR SCT035 BKN080 OVC150
      TEMPO 0103/0104 1SM +RA OVC025
     FM010500 33005KT P6SM BKN080
     FM010700 28005KT P6SM BKN025
     FM011000 30005KT 5SM BR OVC007
     FM011400 30005KT P6SM BKN020
     FM011700 30005KT P6SM BKN035
     FM012000 33007KT P6SM SCT045=

USA.gov is the U.S. government's official web portal to all federal, state and local government web resources and services.